createdAt,value
2022-08-17T00:01:20.493Z,97612.00
2022-08-17T00:04:25.732Z,97611.00
2022-08-17T00:07:00.554Z,97606.00
2022-08-17T00:09:36.383Z,97608.00
2022-08-17T00:12:40.666Z,97604.00
2022-08-17T00:15:13.543Z,97596.00
2022-08-17T00:17:49.573Z,97595.00
2022-08-17T00:20:32.137Z,97604.00
2022-08-17T00:23:17.176Z,97598.00
2022-08-17T00:27:06.526Z,97602.00
2022-08-17T00:29:45.936Z,97589.00
2022-08-17T00:33:36.829Z,97601.00
2022-08-17T00:36:24.283Z,97602.00
2022-08-17T00:39:03.112Z,97590.00
2022-08-17T00:41:42.146Z,97584.00
2022-08-17T00:44:18.925Z,97578.00
2022-08-17T00:46:57.262Z,97571.00
2022-08-17T00:49:31.680Z,97579.00
2022-08-17T00:52:19.235Z,97564.00
2022-08-17T00:54:56.670Z,97571.00
2022-08-17T00:57:37.545Z,97580.00
2022-08-17T01:00:21.928Z,97582.00
2022-08-17T01:03:01.366Z,97588.00
2022-08-17T01:05:46.608Z,97583.00
2022-08-17T01:08:28.276Z,97594.00
2022-08-17T01:15:40.593Z,97594.00
2022-08-17T01:18:27.590Z,97586.00
2022-08-17T01:21:09.613Z,97570.00
2022-08-17T01:24:30.446Z,97570.00
2022-08-17T01:27:10.811Z,97573.00
2022-08-17T01:29:49.909Z,97558.00
2022-08-17T01:36:38.911Z,97579.00
2022-08-17T01:39:33.408Z,97576.00
2022-08-17T01:46:22.302Z,97577.00
2022-08-17T01:49:03.525Z,97582.00
2022-08-17T01:51:39.094Z,97586.00
2022-08-17T01:54:19.105Z,97580.00
2022-08-17T01:56:55.356Z,97585.00
2022-08-17T01:59:29.960Z,97589.00
2022-08-17T02:02:05.035Z,97581.00
2022-08-17T02:04:39.788Z,97586.00
2022-08-17T02:07:15.221Z,97586.00
2022-08-17T02:09:52.748Z,97598.00
2022-08-17T02:13:10.433Z,97592.00
2022-08-17T02:20:50.865Z,97592.00
2022-08-17T02:24:59.509Z,97596.00
2022-08-17T02:27:35.912Z,97580.00
2022-08-17T02:31:00.765Z,97586.00
2022-08-17T02:33:10.774Z,97580.00
2022-08-17T02:35:46.044Z,97597.00
2022-08-17T02:38:21.229Z,97596.00
2022-08-17T02:40:56.056Z,97610.00
2022-08-17T02:43:30.681Z,97580.00
2022-08-17T02:46:06.671Z,97609.00
2022-08-17T02:48:45.075Z,97577.00
2022-08-17T02:51:19.909Z,97598.00
2022-08-17T02:54:35.712Z,97601.00
2022-08-17T03:01:02.003Z,97600.00
2022-08-17T03:04:37.748Z,97602.00
2022-08-17T03:07:12.202Z,97604.00
2022-08-17T03:09:48.086Z,97606.00
2022-08-17T03:12:23.367Z,97590.00
2022-08-17T03:14:58.803Z,97616.00
2022-08-17T03:17:39.321Z,97612.00
2022-08-17T03:20:17.779Z,97617.00
2022-08-17T03:22:55.311Z,97589.00
2022-08-17T03:25:39.519Z,97598.00
2022-08-17T03:28:15.167Z,97614.00
2022-08-17T03:35:03.744Z,97612.00
2022-08-17T03:42:32.584Z,97629.00
2022-08-17T03:49:50.041Z,97628.00
2022-08-17T03:52:58.622Z,97637.00
2022-08-17T03:56:31.683Z,97643.00
2022-08-17T03:59:21.226Z,97660.00
2022-08-17T04:02:00.209Z,97660.00
2022-08-17T04:04:35.747Z,97645.00
2022-08-17T04:07:10.840Z,97650.00
2022-08-17T04:09:58.469Z,97651.00
2022-08-17T04:12:50.355Z,97655.00
2022-08-17T04:15:27.550Z,97648.00
2022-08-17T04:18:12.280Z,97646.00
2022-08-17T04:21:20.311Z,97652.00
2022-08-17T04:24:05.160Z,97658.00
2022-08-17T04:26:53.796Z,97657.00
2022-08-17T04:29:48.759Z,97667.00
2022-08-17T04:33:03.523Z,97655.00
2022-08-17T04:35:26.246Z,97651.00
2022-08-17T04:38:01.104Z,97649.00
2022-08-17T04:40:53.190Z,97651.00
2022-08-17T04:43:42.032Z,97664.00
2022-08-17T04:46:22.571Z,97680.00
2022-08-17T04:48:59.278Z,97680.00
2022-08-17T04:51:54.563Z,97680.00
2022-08-17T04:55:26.551Z,97681.00
2022-08-17T05:03:08.924Z,97698.00
2022-08-17T05:14:04.386Z,97689.00
2022-08-17T05:17:14.233Z,97671.00
2022-08-17T05:24:01.209Z,97672.00
2022-08-17T05:26:56.654Z,97674.00
2022-08-17T05:30:49.313Z,97674.00
2022-08-17T05:34:09.578Z,97680.00
2022-08-17T05:36:45.231Z,97694.00
2022-08-17T05:39:28.984Z,97680.00
2022-08-17T05:50:41.548Z,97687.00
2022-08-17T05:53:35.724Z,97694.00
2022-08-17T06:00:30.100Z,97695.00
2022-08-17T06:07:25.651Z,97710.00
2022-08-17T06:14:47.439Z,97736.00
2022-08-17T06:17:25.829Z,97742.00
2022-08-17T06:24:27.531Z,97746.00
2022-08-17T06:35:32.052Z,97731.00
2022-08-17T06:43:02.780Z,97756.00
2022-08-17T06:49:53.216Z,97765.00
2022-08-17T06:53:54.792Z,97757.00
2022-08-17T06:57:43.945Z,97747.00
2022-08-17T07:04:35.084Z,97739.00
2022-08-17T07:07:26.382Z,97741.00
2022-08-17T07:10:03.165Z,97740.00
2022-08-17T07:12:42.704Z,97735.00
2022-08-17T07:15:43.031Z,97730.00
2022-08-17T07:18:17.276Z,97732.00
2022-08-17T07:21:11.099Z,97722.00
2022-08-17T07:28:05.983Z,97732.00
2022-08-17T07:30:48.989Z,97725.00
2022-08-17T07:33:29.698Z,97727.00
2022-08-17T07:36:30.020Z,97730.00
2022-08-17T07:39:05.768Z,97742.00
2022-08-17T07:41:53.061Z,97721.00
2022-08-17T07:44:51.543Z,97713.00
2022-08-17T07:51:42.203Z,97751.00
2022-08-17T07:54:24.642Z,97745.00
2022-08-17T07:57:03.464Z,97747.00
2022-08-17T08:03:52.622Z,97751.00
2022-08-17T08:06:27.470Z,97755.00
2022-08-17T08:09:03.316Z,97756.00
2022-08-17T08:11:44.148Z,97748.00
2022-08-17T08:14:28.529Z,97754.00
2022-08-17T08:17:26.867Z,97767.00
2022-08-17T08:20:34.952Z,97756.00
2022-08-17T08:23:15.785Z,97754.00
2022-08-17T08:26:05.632Z,97786.00
2022-08-17T08:29:34.708Z,97777.00
2022-08-17T08:32:42.986Z,97786.00
2022-08-17T08:35:33.771Z,97782.00
2022-08-17T08:38:22.402Z,97776.00
2022-08-17T08:42:24.808Z,97787.00
2022-08-17T08:45:17.374Z,97794.00
2022-08-17T08:52:11.894Z,97790.00
2022-08-17T08:55:50.057Z,97787.00
2022-08-17T08:58:53.727Z,97785.00
2022-08-17T09:01:46.925Z,97789.00
2022-08-17T09:05:12.873Z,97773.00
2022-08-17T09:07:54.770Z,97804.00
2022-08-17T09:10:51.847Z,97799.00
2022-08-17T09:13:40.748Z,97805.00
2022-08-17T09:16:40.507Z,97807.00
2022-08-17T09:19:20.682Z,97804.00
2022-08-17T09:21:56.493Z,97813.00
2022-08-17T09:24:40.180Z,97820.00
2022-08-17T09:27:26.807Z,97830.00
2022-08-17T09:30:11.000Z,97831.00
2022-08-17T09:32:52.131Z,97837.00
2022-08-17T09:35:44.642Z,97840.00
2022-08-17T09:38:32.174Z,97841.00
2022-08-17T09:41:16.723Z,97843.00
2022-08-17T09:44:06.938Z,97843.00
2022-08-17T09:46:49.437Z,97841.00
2022-08-17T09:49:33.107Z,97841.00
2022-08-17T09:56:36.651Z,97830.00
2022-08-17T09:59:45.183Z,97824.00
2022-08-17T10:11:00.201Z,97840.00
2022-08-17T10:17:40.469Z,97845.00
2022-08-17T10:20:20.720Z,97852.00
2022-08-17T10:27:19.312Z,97863.00
2022-08-17T10:29:58.575Z,97867.00
2022-08-17T10:36:56.906Z,97868.00
2022-08-17T10:44:38.145Z,97891.00
2022-08-17T10:47:08.965Z,97897.00
2022-08-17T10:50:48.051Z,97898.00
2022-08-17T10:54:35.281Z,97892.00
2022-08-17T10:57:58.539Z,97900.00
2022-08-17T11:01:13.156Z,97872.00
2022-08-17T11:04:39.145Z,97888.00
2022-08-17T11:07:49.862Z,97890.00
2022-08-17T11:11:12.724Z,97883.00
2022-08-17T11:14:11.545Z,97880.00
2022-08-17T11:18:15.306Z,97884.00
2022-08-17T11:21:46.450Z,97883.00
2022-08-17T11:28:52.874Z,97894.00
2022-08-17T11:31:38.281Z,97901.00
2022-08-17T11:38:36.361Z,97907.00
2022-08-17T11:45:55.107Z,97926.00
2022-08-17T11:49:45.048Z,97927.00
2022-08-17T11:52:45.955Z,97914.00
2022-08-17T11:56:03.101Z,97934.00
2022-08-17T11:58:52.042Z,97918.00
2022-08-17T12:05:39.731Z,97911.00
2022-08-17T12:12:33.846Z,97883.00
2022-08-17T12:15:58.522Z,97892.00
2022-08-17T12:18:59.143Z,97893.00
2022-08-17T12:21:54.712Z,97895.00
2022-08-17T12:24:47.586Z,97878.00
2022-08-17T12:28:04.399Z,97874.00
2022-08-17T12:30:33.087Z,97863.00
2022-08-17T12:40:24.093Z,97849.00
2022-08-17T12:43:01.613Z,97860.00
2022-08-17T12:45:39.713Z,97847.00
2022-08-17T12:48:24.554Z,97844.00
2022-08-17T12:51:20.685Z,97846.00
2022-08-17T12:53:57.173Z,97838.00
2022-08-17T12:56:33.335Z,97839.00
2022-08-17T12:59:07.953Z,97821.00
2022-08-17T13:01:58.348Z,97819.00
2022-08-17T13:05:10.758Z,97805.00
2022-08-17T13:08:12.632Z,97815.00
2022-08-17T13:11:09.204Z,97815.00
2022-08-17T13:13:52.415Z,97803.00
2022-08-17T13:17:09.892Z,97791.00
2022-08-17T13:19:51.528Z,97787.00
2022-08-17T13:22:37.675Z,97798.00
2022-08-17T13:25:24.095Z,97802.00
2022-08-17T13:28:05.018Z,97796.00
2022-08-17T13:31:58.908Z,97803.00
2022-08-17T13:35:39.937Z,97792.00
2022-08-17T13:38:41.657Z,97788.00
2022-08-17T13:41:50.725Z,97786.00
2022-08-17T13:44:40.646Z,97794.00
2022-08-17T13:47:22.344Z,97785.00
2022-08-17T13:50:01.723Z,97786.00
2022-08-17T13:53:05.513Z,97777.00
2022-08-17T13:55:54.248Z,97770.00
2022-08-17T14:02:27.773Z,97766.00
2022-08-17T14:09:33.574Z,97750.00
2022-08-17T14:12:18.585Z,97750.00
2022-08-17T14:18:59.281Z,97722.00
2022-08-17T14:21:35.555Z,97721.00
2022-08-17T14:24:22.820Z,97720.00
2022-08-17T14:27:00.953Z,97717.00
2022-08-17T14:29:41.229Z,97711.00
2022-08-17T14:32:25.491Z,97720.00
2022-08-17T14:36:08.911Z,97726.00
2022-08-17T14:42:59.732Z,97710.00
2022-08-17T14:45:47.590Z,97716.00
2022-08-17T14:49:26.631Z,97724.00
2022-08-17T14:52:03.527Z,97722.00
2022-08-17T14:54:45.137Z,97722.00
2022-08-17T14:57:26.000Z,97717.00
2022-08-17T15:00:12.008Z,97721.00
2022-08-17T15:03:00.341Z,97718.00
2022-08-17T15:18:06.237Z,97721.00
2022-08-17T15:20:40.843Z,97710.00
2022-08-17T15:23:28.164Z,97721.00
2022-08-17T15:26:12.892Z,97733.00
2022-08-17T15:28:57.683Z,97723.00
2022-08-17T15:35:50.740Z,97709.00
2022-08-17T15:38:40.364Z,97711.00
2022-08-17T15:41:28.515Z,97710.00
2022-08-17T15:52:48.134Z,97705.00
2022-08-17T15:59:30.730Z,97689.00
2022-08-17T16:03:14.118Z,97685.00
2022-08-17T16:06:02.717Z,97690.00
2022-08-17T16:08:54.461Z,97682.00
2022-08-17T16:11:40.144Z,97683.00
2022-08-17T16:14:39.732Z,97682.00
2022-08-17T16:20:58.917Z,97685.00
2022-08-17T16:23:33.272Z,97674.00
2022-08-17T16:26:35.113Z,97671.00
2022-08-17T16:29:11.813Z,97668.00
2022-08-17T16:32:13.378Z,97664.00
2022-08-17T16:34:52.498Z,97659.00
2022-08-17T16:41:45.773Z,97669.00
2022-08-17T16:48:55.070Z,97664.00
2022-08-17T16:55:55.918Z,97672.00
2022-08-17T17:03:45.509Z,97649.00
2022-08-17T17:06:55.354Z,97643.00
2022-08-17T17:09:40.637Z,97647.00
2022-08-17T17:13:01.130Z,97645.00
2022-08-17T17:15:21.994Z,97651.00
2022-08-17T17:18:23.316Z,97651.00
2022-08-17T17:21:20.581Z,97654.00
2022-08-17T17:24:02.002Z,97661.00
2022-08-17T17:27:10.006Z,97669.00
2022-08-17T17:30:01.511Z,97652.00
2022-08-17T17:32:51.533Z,97645.00
2022-08-17T17:35:36.033Z,97652.00
2022-08-17T17:38:22.612Z,97654.00
2022-08-17T17:41:07.497Z,97649.00
2022-08-17T17:44:03.811Z,97632.00
2022-08-17T17:46:42.146Z,97635.00
2022-08-17T17:49:19.233Z,97643.00
2022-08-17T17:52:11.137Z,97642.00
2022-08-17T17:55:07.777Z,97635.00
2022-08-17T17:58:04.804Z,97641.00
2022-08-17T18:00:45.137Z,97646.00
2022-08-17T18:03:59.230Z,97660.00
2022-08-17T18:06:46.585Z,97654.00
2022-08-17T18:09:34.870Z,97651.00
2022-08-17T18:12:45.139Z,97660.00
2022-08-17T18:19:30.795Z,97649.00
2022-08-17T18:22:14.865Z,97646.00
2022-08-17T18:28:57.357Z,97640.00
2022-08-17T18:31:33.382Z,97650.00
2022-08-17T18:38:29.977Z,97648.00
2022-08-17T18:41:21.488Z,97656.00
2022-08-17T18:44:45.201Z,97654.00
2022-08-17T18:47:22.910Z,97662.00
2022-08-17T18:50:27.367Z,97672.00
2022-08-17T18:53:33.519Z,97671.00
2022-08-17T18:56:26.646Z,97683.00
2022-08-17T18:59:33.735Z,97684.00
2022-08-17T19:02:45.694Z,97690.00
2022-08-17T19:05:34.714Z,97689.00
2022-08-17T19:08:33.875Z,97686.00
2022-08-17T19:11:21.941Z,97692.00
2022-08-17T19:14:03.439Z,97700.00
2022-08-17T19:16:51.986Z,97708.00
2022-08-17T19:19:35.352Z,97699.00
2022-08-17T19:22:28.782Z,97709.00
2022-08-17T19:29:19.600Z,97705.00
2022-08-17T19:31:58.794Z,97692.00
2022-08-17T19:34:35.953Z,97700.00
2022-08-17T19:37:34.732Z,97695.00
2022-08-17T19:44:47.713Z,97689.00
2022-08-17T19:47:56.014Z,97694.00
2022-08-17T19:51:37.673Z,97703.00
2022-08-17T19:54:20.817Z,97682.00
2022-08-17T19:57:04.146Z,97683.00
2022-08-17T20:04:32.768Z,97687.00
2022-08-17T20:11:34.814Z,97687.00
2022-08-17T20:14:37.847Z,97686.00
2022-08-17T20:35:17.686Z,97707.00
2022-08-17T20:38:39.452Z,97702.00
2022-08-17T20:41:25.225Z,97718.00
2022-08-17T20:44:47.589Z,97709.00
2022-08-17T20:47:28.859Z,97703.00
2022-08-17T20:50:10.688Z,97716.00
2022-08-17T20:52:53.865Z,97720.00
2022-08-17T20:55:56.273Z,97724.00
2022-08-17T20:58:50.134Z,97731.00
2022-08-17T21:01:39.729Z,97704.00
2022-08-17T21:04:47.521Z,97729.00
2022-08-17T21:08:01.239Z,97720.00
2022-08-17T21:10:39.691Z,97732.00
2022-08-17T21:14:05.459Z,97742.00
2022-08-17T21:17:12.499Z,97740.00
2022-08-17T21:20:12.588Z,97761.00
2022-08-17T21:23:02.782Z,97771.00
2022-08-17T21:26:12.703Z,97782.00
2022-08-17T21:29:29.639Z,97797.00
2022-08-17T21:32:24.437Z,97806.00
2022-08-17T21:39:13.843Z,97824.00
2022-08-17T21:41:55.917Z,97837.00
2022-08-17T21:45:03.899Z,97849.00
2022-08-17T21:47:47.891Z,97867.00
2022-08-17T21:50:31.653Z,97884.00
2022-08-17T21:53:08.903Z,97889.00
2022-08-17T21:55:45.532Z,97881.00
2022-08-17T21:58:31.242Z,97917.00
2022-08-17T22:01:24.601Z,97926.00
2022-08-17T22:04:08.762Z,97914.00
2022-08-17T22:06:57.185Z,97918.00
2022-08-17T22:09:51.878Z,97931.00
2022-08-17T22:12:28.389Z,97922.00
2022-08-17T22:15:20.667Z,97929.00
2022-08-17T22:17:59.496Z,97929.00
2022-08-17T22:20:50.820Z,97932.00
2022-08-17T22:23:58.305Z,97945.00
2022-08-17T22:27:07.054Z,97949.00
2022-08-17T22:30:18.774Z,97947.00
2022-08-17T22:33:38.467Z,97957.00
2022-08-17T22:36:30.810Z,97982.00
2022-08-17T22:39:42.806Z,97995.00
2022-08-17T22:42:23.742Z,98005.00
2022-08-17T22:45:40.937Z,98006.00
2022-08-17T22:48:27.217Z,97993.00
2022-08-17T22:51:24.188Z,98012.00
2022-08-17T22:54:33.552Z,98034.00
2022-08-17T22:57:33.126Z,98025.00
2022-08-17T23:00:30.649Z,98024.00
2022-08-17T23:03:17.132Z,98011.00
2022-08-17T23:06:09.510Z,98023.00
2022-08-17T23:09:05.449Z,98027.00
2022-08-17T23:11:50.374Z,98026.00
2022-08-17T23:14:31.924Z,98026.00
2022-08-17T23:17:13.101Z,98017.00
2022-08-17T23:19:49.520Z,98000.00
2022-08-17T23:22:27.905Z,98012.00
2022-08-17T23:25:02.916Z,98009.00
2022-08-17T23:27:41.852Z,98003.00
2022-08-17T23:30:18.583Z,98002.00
2022-08-17T23:32:54.389Z,98030.00
2022-08-17T23:35:39.888Z,98028.00
2022-08-17T23:38:19.423Z,98041.00
2022-08-17T23:40:55.029Z,98032.00
2022-08-17T23:43:44.204Z,98034.00
2022-08-17T23:46:21.014Z,98029.00
2022-08-17T23:49:00.644Z,98028.00
2022-08-17T23:51:42.832Z,98030.00
2022-08-17T23:54:51.299Z,98011.00
2022-08-17T23:57:35.093Z,97999.00
